createdAt,value
2022-12-20T00:01:19.303Z,1.87
2022-12-20T00:03:46.660Z,2.93
2022-12-20T00:06:14.578Z,2.10
2022-12-20T00:08:41.736Z,4.67
2022-12-20T00:11:11.144Z,2.30
2022-12-20T00:13:38.481Z,2.50
2022-12-20T00:16:09.331Z,3.00
2022-12-20T00:18:37.056Z,2.23
2022-12-20T00:21:05.989Z,3.60
2022-12-20T00:23:34.945Z,3.80
2022-12-20T00:26:14.746Z,3.23
2022-12-20T00:28:43.121Z,2.50
2022-12-20T00:31:11.306Z,4.37
2022-12-20T00:33:39.528Z,2.50
2022-12-20T00:36:07.446Z,3.07
2022-12-20T00:38:34.880Z,3.47
2022-12-20T00:41:10.870Z,1.73
2022-12-20T00:43:39.104Z,3.40
2022-12-20T00:46:07.550Z,2.97
2022-12-20T00:48:35.407Z,2.40
2022-12-20T00:51:14.306Z,3.07
2022-12-20T00:53:41.930Z,3.43
2022-12-20T00:56:09.711Z,2.33
2022-12-20T00:58:39.125Z,3.10
2022-12-20T01:01:07.628Z,2.53
2022-12-20T01:03:34.820Z,2.43
2022-12-20T01:06:02.731Z,3.27
2022-12-20T01:08:31.329Z,3.13
2022-12-20T01:10:59.325Z,1.80
2022-12-20T01:13:26.709Z,2.70
2022-12-20T01:15:53.716Z,1.80
2022-12-20T01:18:20.612Z,3.33
2022-12-20T01:20:47.404Z,5.80
2022-12-20T01:23:14.195Z,2.47
2022-12-20T01:25:41.055Z,6.87
2022-12-20T01:28:07.863Z,2.77
2022-12-20T01:30:34.604Z,2.57
2022-12-20T01:33:01.489Z,2.67
2022-12-20T01:35:28.234Z,4.50
2022-12-20T01:37:55.015Z,3.53
2022-12-20T01:40:21.773Z,2.37
2022-12-20T01:42:48.577Z,3.97
2022-12-20T01:45:25.435Z,3.13
2022-12-20T01:47:52.522Z,2.43
2022-12-20T01:50:19.702Z,2.13
2022-12-20T01:52:47.825Z,4.53
2022-12-20T01:55:22.790Z,3.07
2022-12-20T01:58:01.592Z,4.37
2022-12-20T02:00:29.471Z,3.73
2022-12-20T02:03:01.334Z,3.97
2022-12-20T02:05:28.304Z,4.50
2022-12-20T02:07:57.280Z,3.20
2022-12-20T02:10:30.101Z,2.70
2022-12-20T02:13:07.939Z,4.60
2022-12-20T02:15:56.913Z,5.07
2022-12-20T02:18:24.209Z,4.67
2022-12-20T02:21:27.137Z,3.73
2022-12-20T02:24:27.534Z,3.10
2022-12-20T02:27:25.482Z,4.03
2022-12-20T02:30:14.209Z,3.17
2022-12-20T02:32:46.828Z,4.63
2022-12-20T02:35:19.294Z,3.87
2022-12-20T02:37:54.949Z,4.03
2022-12-20T02:40:32.463Z,5.67
2022-12-20T02:43:02.970Z,4.10
2022-12-20T02:45:36.753Z,4.20
2022-12-20T02:48:08.085Z,5.50
2022-12-20T02:50:45.965Z,4.77
2022-12-20T02:53:13.873Z,4.20
2022-12-20T02:56:12.838Z,2.77
2022-12-20T02:58:43.770Z,5.37
2022-12-20T03:01:34.039Z,4.83
2022-12-20T03:04:01.648Z,4.00
2022-12-20T03:06:30.621Z,5.23
2022-12-20T03:08:57.835Z,4.47
2022-12-20T03:11:24.553Z,3.67
2022-12-20T03:13:51.348Z,3.80
2022-12-20T03:16:18.172Z,4.50
2022-12-20T03:18:46.114Z,3.43
2022-12-20T03:21:12.914Z,4.63
2022-12-20T03:23:39.692Z,7.47
2022-12-20T03:26:06.521Z,6.03
2022-12-20T03:28:33.316Z,2.83
2022-12-20T03:31:00.190Z,6.77
2022-12-20T03:33:27.014Z,3.50
2022-12-20T03:35:53.714Z,7.80
2022-12-20T03:38:20.421Z,4.63
2022-12-20T03:40:47.244Z,4.53
2022-12-20T03:43:13.927Z,3.90
2022-12-20T03:45:40.841Z,5.27
2022-12-20T03:48:07.530Z,3.43
2022-12-20T03:50:34.484Z,3.47
2022-12-20T03:53:01.787Z,3.30
2022-12-20T03:55:28.602Z,4.43
2022-12-20T03:57:55.400Z,3.63
2022-12-20T04:00:22.200Z,4.67
2022-12-20T04:02:49.316Z,4.03
2022-12-20T04:05:16.769Z,6.97
2022-12-20T04:07:45.412Z,2.20
2022-12-20T04:10:12.487Z,3.23
2022-12-20T04:12:39.266Z,3.37
2022-12-20T04:15:06.581Z,3.33
2022-12-20T04:17:33.403Z,2.73
2022-12-20T04:20:18.891Z,2.27
2022-12-20T04:22:47.507Z,3.17
2022-12-20T04:25:15.968Z,1.67
2022-12-20T04:27:42.835Z,2.60
2022-12-20T04:30:10.284Z,4.97
2022-12-20T04:32:37.078Z,3.00
2022-12-20T04:35:04.251Z,3.77
2022-12-20T04:37:31.857Z,4.83
2022-12-20T04:39:58.807Z,3.60
2022-12-20T04:42:26.097Z,1.97
2022-12-20T04:44:52.843Z,4.30
2022-12-20T04:47:19.606Z,2.50
2022-12-20T04:49:46.413Z,2.57
2022-12-20T04:52:31.746Z,2.17
2022-12-20T04:54:58.445Z,4.60
2022-12-20T04:57:25.289Z,3.00
2022-12-20T04:59:52.084Z,2.87
2022-12-20T05:02:18.964Z,1.80
2022-12-20T05:04:45.952Z,2.20
2022-12-20T05:07:12.688Z,1.80
2022-12-20T05:09:39.539Z,2.17
2022-12-20T05:12:06.570Z,3.20
2022-12-20T05:14:33.640Z,2.93
2022-12-20T05:17:00.439Z,2.43
2022-12-20T05:19:27.216Z,2.83
2022-12-20T05:22:12.486Z,2.80
2022-12-20T05:24:57.837Z,3.87
2022-12-20T05:27:24.732Z,4.93
2022-12-20T05:29:51.517Z,3.00
2022-12-20T05:32:18.270Z,3.07
2022-12-20T05:34:45.032Z,2.93
2022-12-20T05:37:11.813Z,5.53
2022-12-20T05:39:38.912Z,2.70
2022-12-20T05:42:05.810Z,3.70
2022-12-20T05:44:32.667Z,2.37
2022-12-20T05:46:59.811Z,2.50
2022-12-20T05:49:26.582Z,2.33
2022-12-20T05:51:53.370Z,2.00
2022-12-20T05:54:20.256Z,4.07
2022-12-20T05:56:47.326Z,2.30
2022-12-20T05:59:14.210Z,3.70
2022-12-20T06:01:41.030Z,2.63
2022-12-20T06:04:08.068Z,2.63
2022-12-20T06:06:34.908Z,3.63
2022-12-20T06:09:01.771Z,3.50
2022-12-20T06:11:30.449Z,2.50
2022-12-20T06:13:57.624Z,1.83
2022-12-20T06:16:25.655Z,1.90
2022-12-20T06:18:52.459Z,1.83
2022-12-20T06:21:19.209Z,1.53
2022-12-20T06:23:45.988Z,3.73
2022-12-20T06:26:12.766Z,1.83
2022-12-20T06:28:46.194Z,1.97
2022-12-20T06:31:13.044Z,2.10
2022-12-20T06:33:39.979Z,2.33
2022-12-20T06:36:07.055Z,1.90
2022-12-20T06:38:33.813Z,3.87
2022-12-20T06:41:00.566Z,2.03
2022-12-20T06:43:27.343Z,1.93
2022-12-20T06:45:54.498Z,2.63
2022-12-20T06:48:21.444Z,1.87
2022-12-20T06:50:55.814Z,2.90
2022-12-20T06:53:23.171Z,2.30
2022-12-20T06:55:50.550Z,2.40
2022-12-20T06:58:18.331Z,3.67
2022-12-20T07:00:45.254Z,3.10
2022-12-20T07:03:12.506Z,2.40
2022-12-20T07:05:40.707Z,2.10
2022-12-20T07:08:08.276Z,1.70
2022-12-20T07:10:36.961Z,1.40
2022-12-20T07:13:03.892Z,2.83
2022-12-20T07:15:31.215Z,3.00
2022-12-20T07:17:59.249Z,2.17
2022-12-20T07:20:26.027Z,2.23
2022-12-20T07:22:52.763Z,2.83
2022-12-20T07:25:19.575Z,1.80
2022-12-20T07:27:50.212Z,6.40
2022-12-20T07:30:18.174Z,3.27
2022-12-20T07:32:45.199Z,1.53
2022-12-20T07:35:13.106Z,1.70
2022-12-20T07:37:39.971Z,4.40
2022-12-20T07:40:08.778Z,3.90
2022-12-20T07:42:38.181Z,4.10
2022-12-20T07:45:07.730Z,1.97
2022-12-20T07:47:35.932Z,1.90
2022-12-20T07:50:03.601Z,2.50
2022-12-20T07:52:32.918Z,4.30
2022-12-20T07:55:02.618Z,4.57
2022-12-20T07:57:51.904Z,3.33
2022-12-20T08:00:19.214Z,1.63
2022-12-20T08:02:55.807Z,5.27
2022-12-20T08:05:23.328Z,3.43
2022-12-20T08:07:56.852Z,2.43
2022-12-20T08:10:26.308Z,1.47
2022-12-20T08:12:53.249Z,4.30
2022-12-20T08:15:22.374Z,1.80
2022-12-20T08:17:49.785Z,1.77
2022-12-20T08:20:17.214Z,2.57
2022-12-20T08:22:44.130Z,2.03
2022-12-20T08:25:11.912Z,4.20
2022-12-20T08:27:38.838Z,4.73
2022-12-20T08:30:07.543Z,4.27
2022-12-20T08:32:34.288Z,1.93
2022-12-20T08:35:01.144Z,3.87
2022-12-20T08:37:28.042Z,1.90
2022-12-20T08:39:54.784Z,2.77
2022-12-20T08:42:22.434Z,2.30
2022-12-20T08:44:49.240Z,3.47
2022-12-20T08:47:16.032Z,6.50
2022-12-20T08:49:47.624Z,3.87
2022-12-20T08:52:15.279Z,3.10
2022-12-20T08:54:42.225Z,2.73
2022-12-20T08:57:09.347Z,3.37
2022-12-20T08:59:36.107Z,2.47
2022-12-20T09:02:02.969Z,2.10
2022-12-20T09:04:29.771Z,4.03
2022-12-20T09:06:56.580Z,2.60
2022-12-20T09:09:23.391Z,2.70
2022-12-20T09:11:50.321Z,1.83
2022-12-20T09:14:17.978Z,3.37
2022-12-20T09:16:44.843Z,3.03
2022-12-20T09:19:13.789Z,2.70
2022-12-20T09:21:40.958Z,4.07
2022-12-20T09:24:08.919Z,4.47
2022-12-20T09:26:35.680Z,3.30
2022-12-20T09:29:03.437Z,2.27
2022-12-20T09:31:30.327Z,3.80
2022-12-20T09:33:58.851Z,2.93
2022-12-20T09:36:27.743Z,2.83
2022-12-20T09:38:55.313Z,5.03
2022-12-20T09:41:22.968Z,3.90
2022-12-20T09:43:50.298Z,2.60
2022-12-20T09:46:17.678Z,4.00
2022-12-20T09:48:45.812Z,2.63
2022-12-20T09:51:52.268Z,3.80
2022-12-20T09:54:32.831Z,2.47
2022-12-20T09:56:59.515Z,2.47
2022-12-20T09:59:27.229Z,3.00
2022-12-20T10:01:54.251Z,3.97
2022-12-20T10:04:29.771Z,4.53
2022-12-20T10:07:51.877Z,3.87
2022-12-20T10:10:45.751Z,4.57
2022-12-20T10:13:22.554Z,2.40
2022-12-20T10:16:39.939Z,5.10
2022-12-20T10:19:14.870Z,3.73
2022-12-20T10:22:09.580Z,4.37
2022-12-20T10:24:38.860Z,3.10
2022-12-20T10:27:16.810Z,4.70
2022-12-20T10:29:44.494Z,2.70
2022-12-20T10:32:16.841Z,2.93
2022-12-20T10:35:19.249Z,3.73
2022-12-20T10:38:08.427Z,4.27
2022-12-20T10:43:42.346Z,4.87
2022-12-20T10:46:10.205Z,2.50
2022-12-20T10:48:42.072Z,3.03
2022-12-20T10:51:15.140Z,8.47
2022-12-20T10:53:55.133Z,4.37
2022-12-20T10:56:31.113Z,6.93
2022-12-20T10:59:02.251Z,2.73
2022-12-20T11:01:33.396Z,4.10
2022-12-20T11:04:21.900Z,3.00
2022-12-20T11:06:48.777Z,4.93
2022-12-20T11:09:21.260Z,3.47
2022-12-20T11:12:11.878Z,3.37
2022-12-20T11:14:40.139Z,2.23
2022-12-20T11:17:33.366Z,2.37
2022-12-20T11:20:00.016Z,4.67
2022-12-20T11:22:43.755Z,3.23
2022-12-20T11:25:33.130Z,4.30
2022-12-20T11:28:21.861Z,5.53
2022-12-20T11:31:21.205Z,3.87
2022-12-20T11:33:59.932Z,3.77
2022-12-20T11:36:54.550Z,4.57
2022-12-20T11:39:24.644Z,5.77
2022-12-20T11:42:33.454Z,3.07
2022-12-20T11:45:34.566Z,5.93
2022-12-20T11:48:16.045Z,3.83
2022-12-20T11:50:55.054Z,3.70
2022-12-20T11:53:31.147Z,9.67
2022-12-20T11:56:03.532Z,5.17
2022-12-20T11:58:50.556Z,4.03
2022-12-20T12:01:21.044Z,2.73
2022-12-20T12:04:06.661Z,3.63
2022-12-20T12:06:38.919Z,3.80
2022-12-20T12:09:11.514Z,4.33
2022-12-20T12:15:03.136Z,3.20
2022-12-20T12:17:42.316Z,6.20
2022-12-20T12:20:48.465Z,6.43
2022-12-20T12:23:55.857Z,4.73
2022-12-20T12:26:27.511Z,4.77
2022-12-20T12:29:04.117Z,4.50
2022-12-20T12:31:40.089Z,8.87
2022-12-20T12:34:25.404Z,4.67
2022-12-20T12:37:30.581Z,6.43
2022-12-20T12:40:06.017Z,7.10
2022-12-20T12:43:03.582Z,4.50
2022-12-20T12:45:48.049Z,5.77
2022-12-20T12:48:28.098Z,5.23
2022-12-20T12:50:58.388Z,5.23
2022-12-20T12:53:44.976Z,4.37
2022-12-20T12:56:47.229Z,4.90
2022-12-20T12:59:45.459Z,3.40
2022-12-20T13:02:15.535Z,4.70
2022-12-20T13:05:16.567Z,5.33
2022-12-20T13:07:46.413Z,4.00
2022-12-20T13:10:19.235Z,3.67
2022-12-20T13:12:52.187Z,3.60
2022-12-20T13:15:21.831Z,3.23
2022-12-20T13:17:51.809Z,4.93
2022-12-20T13:20:27.487Z,3.33
2022-12-20T13:23:10.423Z,4.00
2022-12-20T13:25:43.119Z,4.07
2022-12-20T13:28:20.521Z,5.33
2022-12-20T13:31:07.833Z,5.27
2022-12-20T13:33:49.153Z,3.80
2022-12-20T13:36:35.535Z,5.13
2022-12-20T13:39:22.696Z,3.60
2022-12-20T13:42:06.604Z,2.90
2022-12-20T13:44:45.551Z,5.83
2022-12-20T13:47:41.390Z,4.40
2022-12-20T13:50:41.682Z,5.50
2022-12-20T13:53:17.930Z,3.60
2022-12-20T13:55:45.326Z,3.03
2022-12-20T13:58:27.293Z,3.77
2022-12-20T14:01:03.503Z,4.47
2022-12-20T14:03:31.562Z,5.40
2022-12-20T14:06:03.467Z,3.10
2022-12-20T14:08:40.391Z,3.83
2022-12-20T14:11:32.732Z,3.77
2022-12-20T14:14:02.198Z,5.13
2022-12-20T14:16:31.528Z,3.07
2022-12-20T14:19:01.929Z,4.10
2022-12-20T14:21:29.380Z,3.33
2022-12-20T14:23:59.560Z,4.40
2022-12-20T14:26:33.982Z,3.97
2022-12-20T14:29:01.548Z,2.93
2022-12-20T14:31:33.098Z,5.93
2022-12-20T14:34:13.580Z,3.00
2022-12-20T14:36:45.846Z,2.60
2022-12-20T14:39:33.613Z,3.67
2022-12-20T14:42:09.820Z,3.80
2022-12-20T14:44:36.933Z,5.00
2022-12-20T14:47:19.669Z,3.57
2022-12-20T14:49:58.878Z,4.27
2022-12-20T14:52:37.747Z,3.33
2022-12-20T14:55:34.785Z,6.43
2022-12-20T14:58:22.996Z,4.17
2022-12-20T15:01:18.089Z,3.77
2022-12-20T15:03:53.782Z,5.93
2022-12-20T15:06:52.967Z,3.23
2022-12-20T15:09:20.678Z,5.47
2022-12-20T15:11:48.283Z,4.73
2022-12-20T15:14:22.777Z,4.93
2022-12-20T15:16:50.213Z,3.33
2022-12-20T15:19:17.073Z,2.87
2022-12-20T15:21:45.215Z,3.70
2022-12-20T15:24:14.127Z,4.57
2022-12-20T15:26:41.597Z,4.33
2022-12-20T15:29:30.982Z,5.10
2022-12-20T15:32:25.914Z,4.53
2022-12-20T15:34:52.677Z,3.13
2022-12-20T15:37:19.783Z,4.43
2022-12-20T15:39:46.891Z,6.20
2022-12-20T15:42:20.621Z,3.23
2022-12-20T15:44:47.577Z,5.40
2022-12-20T15:47:15.855Z,5.30
2022-12-20T15:49:49.499Z,4.07
2022-12-20T15:52:21.169Z,6.23
2022-12-20T15:54:48.474Z,4.37
2022-12-20T15:57:15.497Z,5.10
2022-12-20T16:00:00.339Z,4.30
2022-12-20T16:02:29.927Z,4.77
2022-12-20T16:04:57.643Z,6.53
2022-12-20T16:07:24.578Z,6.07
2022-12-20T16:09:51.404Z,5.40
2022-12-20T16:12:23.177Z,5.77
2022-12-20T16:14:49.939Z,5.63
2022-12-20T16:17:17.674Z,6.30
2022-12-20T16:19:44.715Z,6.83
2022-12-20T16:22:16.577Z,8.17
2022-12-20T16:24:43.677Z,6.57
2022-12-20T16:27:10.919Z,6.53
2022-12-20T16:29:37.913Z,5.63
2022-12-20T16:32:19.874Z,6.90
2022-12-20T16:34:48.744Z,5.70
2022-12-20T16:37:15.571Z,5.93
2022-12-20T16:39:42.905Z,6.73
2022-12-20T16:42:23.217Z,8.37
2022-12-20T16:44:54.118Z,6.40
2022-12-20T16:47:21.671Z,5.63
2022-12-20T16:49:52.881Z,8.47
2022-12-20T16:52:24.028Z,5.77
2022-12-20T16:54:51.391Z,7.97
2022-12-20T16:57:18.669Z,8.20
2022-12-20T16:59:45.395Z,7.83
2022-12-20T17:02:30.552Z,8.90
2022-12-20T17:04:57.573Z,8.17
2022-12-20T17:07:24.556Z,7.20
2022-12-20T17:09:52.018Z,8.70
2022-12-20T17:12:21.568Z,8.87
2022-12-20T17:14:48.987Z,10.23
2022-12-20T17:17:16.337Z,8.20
2022-12-20T17:19:43.121Z,9.07
2022-12-20T17:22:24.434Z,8.47
2022-12-20T17:24:51.264Z,8.93
2022-12-20T17:27:19.011Z,8.23
2022-12-20T17:29:45.787Z,8.93
2022-12-20T17:32:24.593Z,7.03
2022-12-20T17:34:53.057Z,9.27
2022-12-20T17:37:21.168Z,7.63
2022-12-20T17:39:48.404Z,8.90
2022-12-20T17:42:15.945Z,8.73
2022-12-20T17:44:42.942Z,7.37
2022-12-20T17:47:09.705Z,8.43
2022-12-20T17:49:36.640Z,11.27
2022-12-20T17:52:04.002Z,8.73
2022-12-20T17:54:38.906Z,9.37
2022-12-20T17:57:12.667Z,8.80
2022-12-20T17:59:39.548Z,10.93
2022-12-20T18:02:22.598Z,9.00
2022-12-20T18:04:50.067Z,9.37
2022-12-20T18:07:16.947Z,9.83
2022-12-20T18:09:46.975Z,10.00
2022-12-20T18:12:13.765Z,11.07
2022-12-20T18:14:40.530Z,13.27
2022-12-20T18:17:07.308Z,9.03
2022-12-20T18:19:34.108Z,10.07
2022-12-20T18:22:01.603Z,10.87
2022-12-20T18:24:28.662Z,10.50
2022-12-20T18:26:55.417Z,10.93
2022-12-20T18:29:22.156Z,11.27
2022-12-20T18:31:49.026Z,9.93
2022-12-20T18:34:15.805Z,11.73
2022-12-20T18:36:42.567Z,11.17
2022-12-20T18:39:13.075Z,11.30
2022-12-20T18:41:42.965Z,9.97
2022-12-20T18:44:10.888Z,12.43
2022-12-20T18:46:37.772Z,11.90
2022-12-20T18:49:04.926Z,11.27
2022-12-20T18:51:38.978Z,10.47
2022-12-20T18:54:07.886Z,16.70
2022-12-20T18:56:37.618Z,13.43
2022-12-20T18:59:11.367Z,11.73
2022-12-20T19:01:40.444Z,14.30
2022-12-20T19:04:07.986Z,13.73
2022-12-20T19:06:36.255Z,15.83
2022-12-20T19:09:05.980Z,13.13
2022-12-20T19:11:33.070Z,13.27
2022-12-20T19:14:00.041Z,13.73
2022-12-20T19:16:30.439Z,13.40
2022-12-20T19:18:58.549Z,13.37
2022-12-20T19:21:31.408Z,14.00
2022-12-20T19:24:00.832Z,12.77
2022-12-20T19:26:28.703Z,14.00
2022-12-20T19:28:56.080Z,13.87
2022-12-20T19:31:28.785Z,15.93
2022-12-20T19:33:58.211Z,13.40
2022-12-20T19:36:45.773Z,12.73
2022-12-20T19:39:16.151Z,16.27
2022-12-20T19:41:43.354Z,13.50
2022-12-20T19:44:10.198Z,13.90
2022-12-20T19:46:36.977Z,13.90
2022-12-20T19:49:04.164Z,14.43
2022-12-20T19:51:31.166Z,14.50
2022-12-20T19:53:59.307Z,15.20
2022-12-20T19:56:29.252Z,17.73
2022-12-20T19:58:56.617Z,16.73
2022-12-20T20:01:27.044Z,14.47
2022-12-20T20:03:56.212Z,14.70
2022-12-20T20:06:24.236Z,17.53
2022-12-20T20:08:51.143Z,16.67
2022-12-20T20:11:19.471Z,18.30
2022-12-20T20:13:46.676Z,15.67
2022-12-20T20:16:18.364Z,15.73
2022-12-20T20:18:49.246Z,14.90
2022-12-20T20:21:20.972Z,18.10
2022-12-20T20:23:48.568Z,18.90
2022-12-20T20:26:18.225Z,17.57
2022-12-20T20:28:45.733Z,15.10
2022-12-20T20:31:16.921Z,16.70
2022-12-20T20:33:44.633Z,15.97
2022-12-20T20:36:16.567Z,16.30
2022-12-20T20:38:43.346Z,17.67
2022-12-20T20:41:10.724Z,19.00
2022-12-20T20:43:38.256Z,19.17
2022-12-20T20:46:06.746Z,19.60
2022-12-20T20:48:34.084Z,18.13
2022-12-20T20:51:00.905Z,19.17
2022-12-20T20:53:33.452Z,21.23
2022-12-20T20:56:01.672Z,21.37
2022-12-20T20:58:28.553Z,20.27
2022-12-20T21:01:00.808Z,21.27
2022-12-20T21:03:29.100Z,21.10
2022-12-20T21:08:43.102Z,18.77
2022-12-20T21:11:10.163Z,19.80
2022-12-20T21:13:37.351Z,21.03
2022-12-20T21:16:13.697Z,19.07
2022-12-20T21:18:40.590Z,19.10
2022-12-20T21:21:12.507Z,18.43
2022-12-20T21:23:43.406Z,16.30
2022-12-20T21:26:10.397Z,14.63
2022-12-20T21:28:37.141Z,15.77
2022-12-20T21:31:06.814Z,18.73
2022-12-20T21:33:33.625Z,19.67
2022-12-20T21:36:19.943Z,13.50
2022-12-20T21:38:55.027Z,16.63
2022-12-20T21:41:24.030Z,13.20
2022-12-20T21:43:51.623Z,14.17
2022-12-20T21:46:18.457Z,13.53
2022-12-20T21:48:45.667Z,13.33
2022-12-20T21:51:15.975Z,14.07
2022-12-20T21:53:45.266Z,16.43
2022-12-20T21:56:13.003Z,14.60
2022-12-20T21:58:39.918Z,13.37
2022-12-20T22:01:13.378Z,15.33
2022-12-20T22:03:40.279Z,15.03
2022-12-20T22:06:07.241Z,14.37
2022-12-20T22:08:34.336Z,14.10
2022-12-20T22:11:05.782Z,12.97
2022-12-20T22:13:40.479Z,16.27
2022-12-20T22:16:17.239Z,14.33
2022-12-20T22:18:45.126Z,16.30
2022-12-20T22:21:14.445Z,15.33
2022-12-20T22:23:41.701Z,15.20
2022-12-20T22:26:11.671Z,16.33
2022-12-20T22:28:39.622Z,16.90
2022-12-20T22:31:10.642Z,14.83
2022-12-20T22:33:38.406Z,18.70
2022-12-20T22:36:07.262Z,17.73
2022-12-20T22:38:34.298Z,17.70
2022-12-20T22:41:21.243Z,16.77
2022-12-20T22:43:48.653Z,20.83
2022-12-20T22:46:17.161Z,18.20
2022-12-20T22:48:44.774Z,20.77
2022-12-20T22:51:20.648Z,21.10
2022-12-20T22:53:49.288Z,21.13
2022-12-20T22:56:17.852Z,19.47
2022-12-20T22:58:44.734Z,20.37
2022-12-20T23:01:14.366Z,24.17
2022-12-20T23:03:41.609Z,29.67
2022-12-20T23:06:11.503Z,23.70
2022-12-20T23:08:38.283Z,21.53
2022-12-20T23:11:31.735Z,22.83
2022-12-20T23:14:16.866Z,24.97
2022-12-20T23:16:44.093Z,26.20
2022-12-20T23:19:11.518Z,23.03
2022-12-20T23:21:57.032Z,22.67
2022-12-20T23:24:23.858Z,25.60
2022-12-20T23:26:50.727Z,25.67
2022-12-20T23:29:17.551Z,25.53
2022-12-20T23:31:44.417Z,26.40
2022-12-20T23:34:11.284Z,28.93
2022-12-20T23:36:38.104Z,25.43
2022-12-20T23:39:05.855Z,25.73
2022-12-20T23:41:32.646Z,25.57
2022-12-20T23:43:59.798Z,26.50
2022-12-20T23:46:27.019Z,28.90
2022-12-20T23:48:54.020Z,22.43
2022-12-20T23:51:21.766Z,21.87
2022-12-20T23:53:50.719Z,22.17
2022-12-20T23:56:20.206Z,22.10
2022-12-20T23:58:52.406Z,25.27
